Time;durP1;ratioP1;P1;durP2;ratioP2;P2;SDS_P1;SDS_P2;PMS_P1;PMS_P2;Temp;Humidity;BMP_temperature;BMP_pressure;BME280_temperature;BME280_humidity;BME280_pressure;Samples;Min_cycle;Max_cycle;Signal;HPM_P1;HPM_P2
2022/04/29 00:00:51;;;;;;;13.27;9.37;;;;;;;;;;2080842;28;20165;-52
2022/04/29 00:01:51;;;;;;;13.70;8.43;;;;;;;;;;2080692;28;20616;-52
2022/04/29 00:02:52;;;;;;;13.13;8.87;;;;;;;;;;2080560;28;20524;-53
2022/04/29 00:03:53;;;;;;;10.93;9.00;;;;;;;;;;2080658;28;20255;-49
2022/04/29 00:04:53;;;;;;;15.57;8.93;;;;;;;;;;2080533;28;20187;-53
2022/04/29 00:05:54;;;;;;;19.37;9.50;;;;;;;;;;2075899;28;20168;-51
2022/04/29 00:06:55;;;;;;;14.98;8.55;;;;;;;;;;2080516;28;20187;-51
2022/04/29 00:07:55;;;;;;;15.30;9.23;;;;;;;;;;2080374;28;20181;-51
2022/04/29 00:08:55;;;;;;;16.47;9.60;;;;;;;;;;2081467;28;20259;-55
2022/04/29 00:09:56;;;;;;;12.18;9.25;;;;;;;;;;2081596;28;20168;-55
2022/04/29 00:10:56;;;;;;;10.68;9.20;;;;;;;;;;2081518;28;20180;-53
2022/04/29 00:11:57;;;;;;;13.43;9.02;;;;;;;;;;2081511;28;20196;-55
2022/04/29 00:12:59;;;;;;;13.88;8.93;;;;;;;;;;2074140;28;20712;-56
2022/04/29 00:13:59;;;;;;;17.27;9.77;;;;;;;;;;2082183;28;20200;-55
2022/04/29 00:14:59;;;;;;;13.65;9.02;;;;;;;;;;2081817;28;20164;-55
2022/04/29 00:16:00;;;;;;;13.35;9.73;;;;;;;;;;2073776;28;20180;-51
2022/04/29 00:17:00;;;;;;;12.40;9.43;;;;;;;;;;2081179;28;20187;-55
2022/04/29 00:18:00;;;;;;;10.30;8.90;;;;;;;;;;2081410;28;20333;-53
2022/04/29 00:19:01;;;;;;;13.38;9.82;;;;;;;;;;2080216;28;20196;-52
2022/04/29 00:20:01;;;;;;;16.70;9.85;;;;;;;;;;2071804;28;20207;-51
2022/04/29 00:21:01;;;;;;;13.20;9.90;;;;;;;;;;2080904;28;20653;-52
2022/04/29 00:22:01;;;;;;;16.42;10.13;;;;;;;;;;2080694;28;20684;-55
2022/04/29 00:23:02;;;;;;;21.63;10.07;;;;;;;;;;2080501;28;20504;-54
2022/04/29 00:24:02;;;;;;;14.60;10.00;;;;;;;;;;2078311;28;20207;-48
2022/04/29 00:25:03;;;;;;;13.45;9.38;;;;;;;;;;2080976;28;20172;-54
2022/04/29 00:26:03;;;;;;;13.30;9.23;;;;;;;;;;2076777;28;20559;-46
2022/04/29 00:27:04;;;;;;;18.45;10.35;;;;;;;;;;2080980;28;20165;-50
2022/04/29 00:28:04;;;;;;;15.83;9.73;;;;;;;;;;2079425;28;20261;-49
2022/04/29 00:29:05;;;;;;;14.95;9.15;;;;;;;;;;2069505;28;20176;-52
2022/04/29 00:30:07;;;;;;;17.27;10.63;;;;;;;;;;2080083;28;20172;-50
2022/04/29 00:31:07;;;;;;;15.07;8.70;;;;;;;;;;2080666;28;20172;-52
2022/04/29 00:32:07;;;;;;;13.03;8.93;;;;;;;;;;2080596;28;20279;-54
2022/04/29 00:33:07;;;;;;;17.23;9.95;;;;;;;;;;2080994;28;20195;-53
2022/04/29 00:34:07;;;;;;;17.23;11.27;;;;;;;;;;2079777;28;20202;-53
2022/04/29 00:35:09;;;;;;;18.25;10.10;;;;;;;;;;2082290;28;20179;-54
2022/04/29 00:36:10;;;;;;;16.97;10.47;;;;;;;;;;2075462;28;20231;-52
2022/04/29 00:37:11;;;;;;;15.00;10.10;;;;;;;;;;2076598;28;20176;-51
2022/04/29 00:38:15;;;;;;;17.35;9.75;;;;;;;;;;2085493;28;20278;-53
2022/04/29 00:39:15;;;;;;;12.47;9.73;;;;;;;;;;2074872;28;20179;-53
2022/04/29 00:40:16;;;;;;;16.40;10.03;;;;;;;;;;2078076;28;20175;-54
2022/04/29 00:41:22;;;;;;;17.80;9.43;;;;;;;;;;2077072;28;20165;-58
2022/04/29 00:42:22;;;;;;;15.35;9.68;;;;;;;;;;2078410;28;20192;-51
2022/04/29 00:43:23;;;;;;;14.20;9.63;;;;;;;;;;2077031;28;20528;-50
2022/04/29 00:44:23;;;;;;;14.32;9.85;;;;;;;;;;2078411;28;20164;-54
2022/04/29 00:45:24;;;;;;;21.63;9.47;;;;;;;;;;2072664;28;20669;-51
2022/04/29 00:46:25;;;;;;;15.77;10.13;;;;;;;;;;2072586;28;20231;-51
2022/04/29 00:47:25;;;;;;;13.85;9.90;;;;;;;;;;2072759;28;20184;-53
2022/04/29 00:48:26;;;;;;;15.07;10.75;;;;;;;;;;2080951;28;20175;-54
2022/04/29 00:49:26;;;;;;;17.00;9.97;;;;;;;;;;2080088;28;20648;-50
2022/04/29 00:50:27;;;;;;;14.05;10.30;;;;;;;;;;2081513;28;20179;-49
2022/04/29 00:51:28;;;;;;;16.80;9.90;;;;;;;;;;2075577;28;20225;-53
2022/04/29 00:52:29;;;;;;;16.10;9.40;;;;;;;;;;2072304;28;20209;-51
2022/04/29 00:53:30;;;;;;;13.30;10.63;;;;;;;;;;2068180;28;20177;-50
2022/04/29 00:54:31;;;;;;;17.50;9.73;;;;;;;;;;2057718;28;20212;-55
2022/04/29 00:55:34;;;;;;;14.10;10.00;;;;;;;;;;2063510;28;20185;-53
2022/04/29 00:56:36;;;;;;;17.37;10.27;;;;;;;;;;2079993;28;20219;-55
2022/04/29 00:57:43;;;;;;;13.03;9.93;;;;;;;;;;2075200;28;20208;-53
2022/04/29 00:58:45;;;;;;;17.50;10.27;;;;;;;;;;2080530;28;20544;-48
2022/04/29 00:59:51;;;;;;;23.70;10.40;;;;;;;;;;2080353;28;20172;-51
2022/04/29 01:00:52;;;;;;;14.17;10.10;;;;;;;;;;2074807;28;20191;-48
2022/04/29 01:01:54;;;;;;;12.83;10.30;;;;;;;;;;2080364;28;20203;-54
2022/04/29 01:02:55;;;;;;;16.00;9.00;;;;;;;;;;2080095;28;20552;-52
2022/04/29 01:03:55;;;;;;;14.37;9.70;;;;;;;;;;2079969;28;20176;-52
2022/04/29 01:05:03;;;;;;;12.23;9.70;;;;;;;;;;2080098;28;20259;-50
2022/04/29 01:06:03;;;;;;;17.20;10.00;;;;;;;;;;2077437;28;20191;-52
2022/04/29 01:07:04;;;;;;;17.80;9.93;;;;;;;;;;2079904;28;20202;-52
2022/04/29 01:08:05;;;;;;;15.03;9.70;;;;;;;;;;2071745;28;20202;-50
2022/04/29 01:09:05;;;;;;;14.37;10.00;;;;;;;;;;2076432;28;20172;-50
2022/04/29 01:10:06;;;;;;;16.92;10.05;;;;;;;;;;2080096;28;20622;-49
2022/04/29 01:11:07;;;;;;;15.77;9.53;;;;;;;;;;2080375;28;20203;-50
2022/04/29 01:12:07;;;;;;;16.35;10.05;;;;;;;;;;2080521;28;20403;-50
2022/04/29 01:13:09;;;;;;;15.17;10.60;;;;;;;;;;2081040;28;20196;-54
2022/04/29 01:14:09;;;;;;;16.97;10.40;;;;;;;;;;2072093;28;20195;-53
2022/04/29 01:15:12;;;;;;;14.52;10.63;;;;;;;;;;2072468;28;20169;-54
2022/04/29 01:16:13;;;;;;;16.47;10.13;;;;;;;;;;2078252;28;20195;-50
2022/04/29 01:17:14;;;;;;;18.70;10.70;;;;;;;;;;2081734;28;20549;-52
2022/04/29 01:18:16;;;;;;;18.52;10.65;;;;;;;;;;2072635;28;20169;-52
2022/04/29 01:19:17;;;;;;;14.68;10.25;;;;;;;;;;2073138;28;20665;-53
2022/04/29 01:20:19;;;;;;;15.93;9.43;;;;;;;;;;2081345;28;20303;-47
2022/04/29 01:21:20;;;;;;;19.38;10.50;;;;;;;;;;2081977;28;20892;-52
2022/04/29 01:22:20;;;;;;;18.13;10.03;;;;;;;;;;2065720;28;20267;-55
2022/04/29 01:23:20;;;;;;;18.37;10.10;;;;;;;;;;2067905;28;20174;-53
2022/04/29 01:24:20;;;;;;;13.27;9.82;;;;;;;;;;2079720;28;20318;-55
2022/04/29 01:25:21;;;;;;;15.33;9.80;;;;;;;;;;2082168;28;20168;-50
2022/04/29 01:26:24;;;;;;;15.00;10.10;;;;;;;;;;2082179;28;20172;-52
2022/04/29 01:27:25;;;;;;;16.80;10.23;;;;;;;;;;2073913;28;20254;-50
2022/04/29 01:28:28;;;;;;;17.10;10.77;;;;;;;;;;2070491;28;20189;-56
2022/04/29 01:29:31;;;;;;;17.67;10.07;;;;;;;;;;2081435;28;20180;-47
2022/04/29 01:30:32;;;;;;;15.40;10.93;;;;;;;;;;2081094;28;20169;-53
2022/04/29 01:31:32;;;;;;;13.52;10.45;;;;;;;;;;2072920;28;20177;-52
2022/04/29 01:32:35;;;;;;;18.03;10.43;;;;;;;;;;2072942;28;20208;-50
2022/04/29 01:33:35;;;;;;;19.07;11.00;;;;;;;;;;2073691;28;20231;-51
2022/04/29 01:34:36;;;;;;;21.30;10.23;;;;;;;;;;2072029;28;20212;-56
2022/04/29 01:35:36;;;;;;;22.30;10.87;;;;;;;;;;2072320;28;20196;-56
2022/04/29 01:36:37;;;;;;;14.17;10.97;;;;;;;;;;2073188;28;20213;-59
2022/04/29 01:37:37;;;;;;;17.83;10.73;;;;;;;;;;2072596;28;20211;-50
2022/04/29 01:38:38;;;;;;;17.03;11.03;;;;;;;;;;2080725;28;20168;-53
2022/04/29 01:39:40;;;;;;;18.23;11.40;;;;;;;;;;2081130;28;20686;-50
2022/04/29 01:40:40;;;;;;;18.70;11.53;;;;;;;;;;2080279;28;20189;-51
2022/04/29 01:41:47;;;;;;;18.27;10.73;;;;;;;;;;2067249;28;20165;-51
2022/04/29 01:42:47;;;;;;;17.33;10.80;;;;;;;;;;2069573;28;20180;-54
2022/04/29 01:43:47;;;;;;;17.20;10.60;;;;;;;;;;2065879;28;20231;-54
2022/04/29 01:44:48;;;;;;;20.87;10.90;;;;;;;;;;2068830;28;20267;-51
2022/04/29 01:45:49;;;;;;;15.13;11.18;;;;;;;;;;2072451;28;20169;-52
2022/04/29 01:47:00;;;;;;;17.80;11.50;;;;;;;;;;2074089;28;20335;-53
2022/04/29 01:48:30;;;;;;;14.03;10.53;;;;;;;;;;2067579;28;20180;-54
2022/04/29 01:49:58;;;;;;;15.63;10.37;;;;;;;;;;2077881;28;20199;-52
2022/04/29 01:50:59;;;;;;;16.43;10.93;;;;;;;;;;2080311;28;20183;-53
2022/04/29 01:52:00;;;;;;;18.27;11.33;;;;;;;;;;2072672;28;20196;-52
2022/04/29 01:53:00;;;;;;;14.77;10.60;;;;;;;;;;2072983;28;20549;-50
2022/04/29 01:54:00;;;;;;;16.80;11.87;;;;;;;;;;2072484;28;20184;-48
2022/04/29 01:55:00;;;;;;;21.30;11.70;;;;;;;;;;2072319;28;20169;-53
2022/04/29 01:56:04;;;;;;;13.67;10.27;;;;;;;;;;2071775;28;20173;-53
2022/04/29 01:57:06;;;;;;;15.03;10.53;;;;;;;;;;2071482;28;20232;-51
2022/04/29 01:58:06;;;;;;;14.68;10.55;;;;;;;;;;2068617;28;20165;-54
2022/04/29 01:59:07;;;;;;;18.00;11.03;;;;;;;;;;2072224;28;20208;-53
2022/04/29 02:00:19;;;;;;;13.93;11.47;;;;;;;;;;2082611;28;20156;-51
2022/04/29 02:01:22;;;;;;;16.83;9.65;;;;;;;;;;2080484;28;20204;-57
2022/04/29 02:02:25;;;;;;;15.63;10.68;;;;;;;;;;2071226;28;20185;-56
2022/04/29 02:03:25;;;;;;;13.90;9.73;;;;;;;;;;2080389;28;20254;-52
2022/04/29 02:04:26;;;;;;;26.58;10.95;;;;;;;;;;2080683;28;20176;-54
2022/04/29 02:05:26;;;;;;;23.58;11.32;;;;;;;;;;2081183;28;20160;-53
2022/04/29 02:06:27;;;;;;;19.05;11.93;;;;;;;;;;2081382;28;20191;-55
2022/04/29 02:07:27;;;;;;;23.37;11.37;;;;;;;;;;2072585;28;20173;-50
2022/04/29 02:08:28;;;;;;;18.17;10.93;;;;;;;;;;2080598;28;20399;-53
2022/04/29 02:09:29;;;;;;;16.70;11.05;;;;;;;;;;2077554;28;20215;-55
2022/04/29 02:10:29;;;;;;;19.23;11.17;;;;;;;;;;2072380;28;20241;-55
2022/04/29 02:11:29;;;;;;;16.73;9.67;;;;;;;;;;2080823;28;20232;-51
2022/04/29 02:12:46;;;;;;;19.37;10.57;;;;;;;;;;2075624;28;20180;-50
2022/04/29 02:14:04;;;;;;;18.97;10.73;;;;;;;;;;2075401;28;20203;-57
2022/04/29 02:15:24;;;;;;;18.53;11.37;;;;;;;;;;2077565;28;20172;-53
2022/04/29 02:16:24;;;;;;;16.50;10.73;;;;;;;;;;2072372;28;20204;-57
2022/04/29 02:17:25;;;;;;;16.90;11.07;;;;;;;;;;2074139;28;20176;-53
2022/04/29 02:18:26;;;;;;;17.63;10.75;;;;;;;;;;2080440;28;20164;-54
2022/04/29 02:19:27;;;;;;;15.70;11.20;;;;;;;;;;2081545;28;20172;-53
2022/04/29 02:20:27;;;;;;;17.60;11.40;;;;;;;;;;2076950;28;20177;-50
2022/04/29 02:21:28;;;;;;;14.80;11.50;;;;;;;;;;2073607;28;20180;-53
2022/04/29 02:22:28;;;;;;;18.33;11.73;;;;;;;;;;2064465;28;20555;-54
2022/04/29 02:23:29;;;;;;;24.90;11.23;;;;;;;;;;2072754;28;20569;-49
2022/04/29 02:24:31;;;;;;;23.50;11.33;;;;;;;;;;2079604;28;20165;-54
2022/04/29 02:25:32;;;;;;;22.37;11.73;;;;;;;;;;2073534;28;20208;-52
2022/04/29 02:26:32;;;;;;;15.53;11.03;;;;;;;;;;2080164;28;20184;-55
2022/04/29 02:27:32;;;;;;;20.40;12.27;;;;;;;;;;2080413;28;20176;-53
2022/04/29 02:28:34;;;;;;;22.97;11.80;;;;;;;;;;2072863;28;20316;-56
2022/04/29 02:29:35;;;;;;;20.83;12.13;;;;;;;;;;2072320;28;20169;-54
2022/04/29 02:30:44;;;;;;;18.10;11.13;;;;;;;;;;2080509;28;20246;-53
2022/04/29 02:31:44;;;;;;;16.90;11.50;;;;;;;;;;2080838;28;20258;-51
2022/04/29 02:32:46;;;;;;;19.87;11.73;;;;;;;;;;2081328;28;20176;-49
2022/04/29 02:33:46;;;;;;;20.63;12.13;;;;;;;;;;2080776;28;20168;-51
2022/04/29 02:34:46;;;;;;;17.47;10.47;;;;;;;;;;2080566;28;20173;-55
2022/04/29 02:35:47;;;;;;;16.83;11.30;;;;;;;;;;2072744;28;20215;-52
2022/04/29 02:36:47;;;;;;;14.17;10.53;;;;;;;;;;2081099;28;20339;-50
2022/04/29 02:37:48;;;;;;;19.87;12.13;;;;;;;;;;2081498;28;20326;-50
2022/04/29 02:38:49;;;;;;;20.53;11.17;;;;;;;;;;2080264;28;20264;-51
2022/04/29 02:39:50;;;;;;;22.33;12.13;;;;;;;;;;2080270;28;20659;-51
2022/04/29 02:40:50;;;;;;;24.73;12.47;;;;;;;;;;2080611;28;20219;-50
2022/04/29 02:41:51;;;;;;;16.57;10.90;;;;;;;;;;2072073;28;20265;-48
2022/04/29 02:42:52;;;;;;;18.00;11.70;;;;;;;;;;2079098;28;20352;-52
2022/04/29 02:43:53;;;;;;;21.43;12.23;;;;;;;;;;2080114;28;20234;-56
2022/04/29 02:44:53;;;;;;;20.13;12.53;;;;;;;;;;2079867;28;20644;-56
2022/04/29 02:45:56;;;;;;;22.10;13.60;;;;;;;;;;2075872;28;20203;-50
2022/04/29 02:47:08;;;;;;;22.10;12.50;;;;;;;;;;2063596;28;20557;-52
2022/04/29 02:48:08;;;;;;;22.27;11.40;;;;;;;;;;2072928;28;20165;-52
2022/04/29 02:49:08;;;;;;;16.63;12.30;;;;;;;;;;2078252;28;20180;-52
2022/04/29 02:50:09;;;;;;;19.53;12.07;;;;;;;;;;2064422;28;20173;-55
2022/04/29 02:51:10;;;;;;;21.70;11.57;;;;;;;;;;2069089;28;20314;-52
2022/04/29 02:52:11;;;;;;;16.47;12.07;;;;;;;;;;2072790;28;20375;-50
2022/04/29 02:53:12;;;;;;;18.93;12.20;;;;;;;;;;2072906;28;20497;-48
2022/04/29 02:54:12;;;;;;;17.47;12.97;;;;;;;;;;2075244;28;20189;-51
2022/04/29 02:55:13;;;;;;;20.87;12.17;;;;;;;;;;2073412;28;20169;-50
2022/04/29 02:56:22;;;;;;;18.13;11.90;;;;;;;;;;2068488;28;20726;-57
2022/04/29 02:57:42;;;;;;;17.23;11.53;;;;;;;;;;2074460;28;20755;-53
2022/04/29 02:58:43;;;;;;;18.97;12.10;;;;;;;;;;2065137;28;20217;-48
2022/04/29 02:59:43;;;;;;;21.87;13.17;;;;;;;;;;2059481;28;20170;-48
2022/04/29 03:00:44;;;;;;;20.97;12.90;;;;;;;;;;2072765;28;20195;-51
2022/04/29 03:01:45;;;;;;;18.63;12.93;;;;;;;;;;2072935;28;20161;-52
2022/04/29 03:02:46;;;;;;;19.37;12.87;;;;;;;;;;2072723;28;20161;-53
2022/04/29 03:03:47;;;;;;;21.70;12.90;;;;;;;;;;2068614;28;20174;-49
2022/04/29 03:04:47;;;;;;;18.97;11.33;;;;;;;;;;2071773;28;20311;-54
2022/04/29 03:05:48;;;;;;;20.93;12.23;;;;;;;;;;2072630;28;20264;-49
2022/04/29 03:06:48;;;;;;;19.57;12.87;;;;;;;;;;2072793;28;20208;-55
2022/04/29 03:07:48;;;;;;;21.77;14.13;;;;;;;;;;2074702;28;20177;-53
2022/04/29 03:08:50;;;;;;;20.83;13.00;;;;;;;;;;2081796;28;20183;-47
2022/04/29 03:09:50;;;;;;;16.30;12.10;;;;;;;;;;2072752;28;20575;-54
2022/04/29 03:10:54;;;;;;;20.50;12.13;;;;;;;;;;2073277;28;20177;-48
2022/04/29 03:11:55;;;;;;;17.97;13.60;;;;;;;;;;2065279;28;20173;-54
2022/04/29 03:12:56;;;;;;;20.97;12.33;;;;;;;;;;2073488;28;20235;-50
2022/04/29 03:14:06;;;;;;;25.30;13.40;;;;;;;;;;2080119;28;20161;-54
2022/04/29 03:15:49;;;;;;;19.03;12.43;;;;;;;;;;2080863;28;20176;-50
2022/04/29 03:16:30;;;;;;;24.97;11.63;;;;;;;;;;2067869;28;20219;-49
2022/04/29 03:18:49;;;;;;;16.90;12.23;;;;;;;;;;2081208;28;20218;-50
2022/04/29 03:19:50;;;;;;;23.77;13.03;;;;;;;;;;2081420;28;20164;-49
2022/04/29 03:20:53;;;;;;;20.60;12.07;;;;;;;;;;2080894;28;20233;-50
2022/04/29 03:21:53;;;;;;;21.00;12.40;;;;;;;;;;2081485;28;20279;-50
2022/04/29 03:22:53;;;;;;;19.90;11.87;;;;;;;;;;2081203;28;20180;-54
2022/04/29 03:23:54;;;;;;;20.60;13.27;;;;;;;;;;2081240;28;20237;-51
2022/04/29 03:24:54;;;;;;;20.97;13.03;;;;;;;;;;2080719;28;20195;-48
2022/04/29 03:25:55;;;;;;;21.67;13.00;;;;;;;;;;2073344;28;20581;-52
2022/04/29 03:26:56;;;;;;;23.53;13.33;;;;;;;;;;2073090;28;20184;-52
2022/04/29 03:27:56;;;;;;;21.93;13.50;;;;;;;;;;2073112;28;20271;-49
2022/04/29 03:28:57;;;;;;;23.07;13.30;;;;;;;;;;2080768;28;20183;-51
2022/04/29 03:29:58;;;;;;;21.30;13.43;;;;;;;;;;2072993;28;20708;-46
2022/04/29 03:30:58;;;;;;;23.23;13.63;;;;;;;;;;2072771;28;20597;-53
2022/04/29 03:32:04;;;;;;;19.03;12.70;;;;;;;;;;2073589;28;20192;-55
2022/04/29 03:33:23;;;;;;;22.50;14.23;;;;;;;;;;2081561;28;20205;-51
2022/04/29 03:34:24;;;;;;;23.70;12.57;;;;;;;;;;2080646;28;20176;-52
2022/04/29 03:35:25;;;;;;;21.00;13.33;;;;;;;;;;2079700;28;20190;-53
2022/04/29 03:36:25;;;;;;;26.60;13.93;;;;;;;;;;2072357;28;20201;-51
2022/04/29 03:37:28;;;;;;;24.10;14.40;;;;;;;;;;2072376;28;20195;-51
2022/04/29 03:38:28;;;;;;;23.07;12.90;;;;;;;;;;2080297;28;20172;-48
2022/04/29 03:39:29;;;;;;;20.23;13.60;;;;;;;;;;2072588;28;20173;-50
2022/04/29 03:40:29;;;;;;;32.60;13.97;;;;;;;;;;2078405;28;20573;-51
2022/04/29 03:41:30;;;;;;;24.00;13.83;;;;;;;;;;2079213;28;20978;-51
2022/04/29 03:42:30;;;;;;;17.73;12.50;;;;;;;;;;2072621;28;20291;-52
2022/04/29 03:43:31;;;;;;;21.43;13.40;;;;;;;;;;2072108;28;20689;-50
2022/04/29 03:44:31;;;;;;;23.33;14.40;;;;;;;;;;2071548;28;20169;-50
2022/04/29 03:45:31;;;;;;;24.03;13.43;;;;;;;;;;2064257;28;20170;-48
2022/04/29 03:46:33;;;;;;;25.53;13.83;;;;;;;;;;2072558;28;20196;-55
2022/04/29 03:47:47;;;;;;;26.87;13.50;;;;;;;;;;2073797;28;20215;-54
2022/04/29 03:50:28;;;;;;;21.37;13.07;;;;;;;;;;2072705;28;20224;-49
2022/04/29 03:51:39;;;;;;;21.40;13.60;;;;;;;;;;2073296;28;20173;-51
2022/04/29 03:52:46;;;;;;;24.57;13.80;;;;;;;;;;2072406;28;20176;-54
2022/04/29 03:53:48;;;;;;;22.77;13.73;;;;;;;;;;2072841;28;20185;-49
2022/04/29 03:54:48;;;;;;;25.83;14.23;;;;;;;;;;2072029;28;20752;-51
2022/04/29 03:55:49;;;;;;;22.97;12.50;;;;;;;;;;2066484;28;20223;-51
2022/04/29 03:56:51;;;;;;;22.77;13.20;;;;;;;;;;2069760;28;20247;-53
2022/04/29 03:57:55;;;;;;;18.53;13.27;;;;;;;;;;2072046;28;20704;-49
2022/04/29 03:58:55;;;;;;;20.90;13.40;;;;;;;;;;2070864;28;20251;-53
2022/04/29 03:59:55;;;;;;;21.77;12.87;;;;;;;;;;2069110;28;20211;-52
2022/04/29 04:00:56;;;;;;;23.57;14.53;;;;;;;;;;2077556;28;20184;-50
2022/04/29 04:02:20;;;;;;;23.37;12.93;;;;;;;;;;2079911;28;20199;-49
2022/04/29 04:03:21;;;;;;;20.47;14.30;;;;;;;;;;2071715;28;20291;-50
2022/04/29 04:04:24;;;;;;;21.70;12.93;;;;;;;;;;2071689;28;20657;-48
2022/04/29 04:05:26;;;;;;;22.60;13.93;;;;;;;;;;2071099;28;20173;-53
2022/04/29 04:07:45;;;;;;;23.80;13.67;;;;;;;;;;2074322;28;20616;-52
2022/04/29 04:08:58;;;;;;;24.40;13.17;;;;;;;;;;2079907;28;20218;-51
2022/04/29 04:09:58;;;;;;;28.73;13.77;;;;;;;;;;2081885;28;20176;-50
2022/04/29 04:10:58;;;;;;;16.80;12.40;;;;;;;;;;2068561;28;20571;-54
2022/04/29 04:13:21;;;;;;;27.00;14.03;;;;;;;;;;2076252;28;20692;-55
2022/04/29 04:14:45;;;;;;;25.93;13.20;;;;;;;;;;2078572;28;20216;-57
2022/04/29 04:15:46;;;;;;;22.03;13.80;;;;;;;;;;2079621;28;20545;-56
2022/04/29 04:16:47;;;;;;;26.67;14.40;;;;;;;;;;2079669;28;20199;-52
2022/04/29 04:17:47;;;;;;;22.67;14.07;;;;;;;;;;2074109;28;20245;-53
2022/04/29 04:18:47;;;;;;;21.57;12.97;;;;;;;;;;2071675;28;20173;-53
2022/04/29 04:19:48;;;;;;;23.97;13.67;;;;;;;;;;2077103;28;20184;-56
2022/04/29 04:20:48;;;;;;;18.70;12.93;;;;;;;;;;2071131;28;20195;-52
2022/04/29 04:21:49;;;;;;;24.87;13.57;;;;;;;;;;2069003;28;20272;-53
2022/04/29 04:22:49;;;;;;;20.20;13.00;;;;;;;;;;2079613;28;20199;-55
2022/04/29 04:23:49;;;;;;;18.93;14.00;;;;;;;;;;2079517;28;20187;-54
2022/04/29 04:24:50;;;;;;;20.57;14.70;;;;;;;;;;2077366;28;20660;-52
2022/04/29 04:25:51;;;;;;;21.17;14.10;;;;;;;;;;2074208;28;20192;-53
2022/04/29 04:26:52;;;;;;;25.43;14.33;;;;;;;;;;2072092;28;20252;-56
2022/04/29 04:27:53;;;;;;;24.00;14.17;;;;;;;;;;2076269;28;20693;-55
2022/04/29 04:28:59;;;;;;;16.63;12.13;;;;;;;;;;2088156;28;20187;-54
2022/04/29 04:30:05;;;;;;;25.63;14.03;;;;;;;;;;2079171;28;20263;-53
2022/04/29 04:31:05;;;;;;;19.83;14.23;;;;;;;;;;2079664;28;20222;-56
2022/04/29 04:32:18;;;;;;;25.40;14.53;;;;;;;;;;2079998;28;20167;-53
2022/04/29 04:33:18;;;;;;;26.83;14.30;;;;;;;;;;2079904;28;20198;-57
2022/04/29 04:35:39;;;;;;;21.47;13.80;;;;;;;;;;2078235;28;20188;-55
2022/04/29 04:36:39;;;;;;;21.43;14.03;;;;;;;;;;2077546;28;20216;-57
2022/04/29 04:37:40;;;;;;;23.63;15.57;;;;;;;;;;2079963;28;20176;-56
2022/04/29 04:38:41;;;;;;;21.60;15.20;;;;;;;;;;2079489;28;20204;-55
2022/04/29 04:39:44;;;;;;;28.37;15.97;;;;;;;;;;2088118;28;20727;-54
2022/04/29 04:40:47;;;;;;;21.70;14.33;;;;;;;;;;2084103;28;20187;-51
2022/04/29 04:41:48;;;;;;;22.23;15.17;;;;;;;;;;2078890;28;20171;-55
2022/04/29 04:42:53;;;;;;;22.07;14.47;;;;;;;;;;2080180;28;20405;-56
2022/04/29 04:44:05;;;;;;;27.40;14.60;;;;;;;;;;2069927;28;20172;-56
2022/04/29 04:45:05;;;;;;;21.60;13.83;;;;;;;;;;2079922;28;20186;-56
2022/04/29 04:46:12;;;;;;;24.17;13.37;;;;;;;;;;2078654;28;20231;-52
2022/04/29 04:47:13;;;;;;;17.90;13.00;;;;;;;;;;2079297;28;20212;-56
2022/04/29 04:48:45;;;;;;;24.60;13.37;;;;;;;;;;2072782;28;20208;-54
2022/04/29 04:50:11;;;;;;;25.73;15.03;;;;;;;;;;2057266;28;20177;-56
2022/04/29 04:51:12;;;;;;;22.50;13.37;;;;;;;;;;2081467;28;20825;-54
2022/04/29 04:52:17;;;;;;;23.80;13.87;;;;;;;;;;2081738;28;20176;-55
2022/04/29 04:53:18;;;;;;;22.53;13.23;;;;;;;;;;2077277;28;20169;-53
2022/04/29 04:54:18;;;;;;;23.87;13.07;;;;;;;;;;2078647;28;20168;-56
2022/04/29 04:55:19;;;;;;;18.70;12.37;;;;;;;;;;2081443;28;20225;-54
2022/04/29 04:56:19;;;;;;;21.47;13.23;;;;;;;;;;2079227;28;20164;-56
2022/04/29 04:57:20;;;;;;;23.10;13.63;;;;;;;;;;2076878;28;20165;-58
2022/04/29 04:58:20;;;;;;;18.20;13.10;;;;;;;;;;2079439;28;20230;-57
2022/04/29 04:59:21;;;;;;;22.77;13.67;;;;;;;;;;2073464;28;20175;-58
2022/04/29 05:00:21;;;;;;;20.27;13.53;;;;;;;;;;2079335;28;20180;-53
2022/04/29 05:01:53;;;;;;;20.73;11.83;;;;;;;;;;2083859;28;20192;-58
2022/04/29 05:03:20;;;;;;;25.27;13.57;;;;;;;;;;2084181;28;20184;-53
2022/04/29 05:04:38;;;;;;;22.60;13.50;;;;;;;;;;2081992;28;20172;-52
2022/04/29 05:05:51;;;;;;;19.07;13.27;;;;;;;;;;2083070;28;20172;-55
2022/04/29 05:06:52;;;;;;;24.80;14.10;;;;;;;;;;2076068;28;20573;-58
2022/04/29 05:07:53;;;;;;;19.20;12.87;;;;;;;;;;2082102;28;20187;-52
2022/04/29 05:08:53;;;;;;;22.50;14.70;;;;;;;;;;2075065;28;20291;-55
2022/04/29 05:09:53;;;;;;;26.27;13.87;;;;;;;;;;2067982;28;22188;-54
2022/04/29 05:10:53;;;;;;;20.53;12.30;;;;;;;;;;2081271;28;20183;-58
2022/04/29 05:11:54;;;;;;;22.57;12.77;;;;;;;;;;2081969;28;20164;-54
2022/04/29 05:13:17;;;;;;;18.33;12.00;;;;;;;;;;2081436;28;20176;-54
2022/04/29 05:14:22;;;;;;;23.07;13.17;;;;;;;;;;2072818;28;20173;-55
2022/04/29 05:15:23;;;;;;;19.20;12.50;;;;;;;;;;2082040;28;20189;-56
2022/04/29 05:16:25;;;;;;;18.20;12.53;;;;;;;;;;2079291;28;20546;-56
2022/04/29 05:17:47;;;;;;;15.10;11.80;;;;;;;;;;2080629;28;20180;-51
2022/04/29 05:19:26;;;;;;;18.87;12.30;;;;;;;;;;2076778;28;20188;-58
2022/04/29 05:20:30;;;;;;;18.83;13.00;;;;;;;;;;2082136;28;20625;-54
2022/04/29 05:21:31;;;;;;;20.20;13.27;;;;;;;;;;2079643;28;20288;-55
2022/04/29 05:22:32;;;;;;;16.80;13.43;;;;;;;;;;2081430;28;20223;-56
2022/04/29 05:23:34;;;;;;;20.57;13.20;;;;;;;;;;2080389;28;20219;-57
2022/04/29 05:24:53;;;;;;;20.60;13.03;;;;;;;;;;2086554;28;20203;-55
2022/04/29 05:26:12;;;;;;;26.00;14.00;;;;;;;;;;2078466;28;20176;-56
2022/04/29 05:27:50;;;;;;;21.20;13.13;;;;;;;;;;2076780;28;20681;-54
2022/04/29 05:29:26;;;;;;;22.63;13.53;;;;;;;;;;2081745;28;20649;-56
2022/04/29 05:30:44;;;;;;;18.93;13.03;;;;;;;;;;2079955;28;20172;-55
2022/04/29 05:32:15;;;;;;;28.60;13.67;;;;;;;;;;2081818;28;20185;-54
2022/04/29 05:33:42;;;;;;;20.33;14.13;;;;;;;;;;2058945;28;20698;-54
2022/04/29 05:35:01;;;;;;;20.47;13.33;;;;;;;;;;2077267;28;20180;-54
2022/04/29 05:36:20;;;;;;;19.30;14.47;;;;;;;;;;2081834;28;20180;-50
2022/04/29 05:37:40;;;;;;;25.50;13.23;;;;;;;;;;2081646;28;20231;-52
2022/04/29 05:42:42;;;;;;;22.63;13.10;;;;;;;;;;2079514;28;20195;-55
2022/04/29 05:43:42;;;;;;;22.93;12.43;;;;;;;;;;2081345;28;20623;-52
2022/04/29 05:44:44;;;;;;;23.73;14.10;;;;;;;;;;2080398;28;20205;-58
2022/04/29 05:45:46;;;;;;;23.73;13.50;;;;;;;;;;2081379;28;20192;-55
2022/04/29 05:46:47;;;;;;;21.83;12.93;;;;;;;;;;2081492;28;20251;-55
2022/04/29 05:47:47;;;;;;;20.83;13.30;;;;;;;;;;2081027;28;20212;-54
2022/04/29 05:48:48;;;;;;;20.07;13.50;;;;;;;;;;2070564;28;20312;-57
2022/04/29 05:49:48;;;;;;;24.13;13.67;;;;;;;;;;2070885;28;20216;-57
2022/04/29 05:50:53;;;;;;;22.43;13.77;;;;;;;;;;2080314;28;20621;-56
2022/04/29 05:51:53;;;;;;;21.90;13.77;;;;;;;;;;2088824;28;20172;-55
2022/04/29 05:52:56;;;;;;;18.23;13.50;;;;;;;;;;2080891;28;20203;-58
2022/04/29 05:53:56;;;;;;;22.33;13.00;;;;;;;;;;2081446;28;20179;-55
2022/04/29 05:54:57;;;;;;;18.23;13.33;;;;;;;;;;2081229;28;20255;-54
2022/04/29 05:56:03;;;;;;;26.83;14.60;;;;;;;;;;2081896;28;20275;-53
2022/04/29 05:57:03;;;;;;;20.93;14.63;;;;;;;;;;2081587;28;20255;-53
2022/04/29 05:58:04;;;;;;;21.00;14.27;;;;;;;;;;2089738;28;20242;-55
2022/04/29 05:59:05;;;;;;;22.07;14.80;;;;;;;;;;2073116;28;20181;-53
2022/04/29 06:00:24;;;;;;;20.43;13.53;;;;;;;;;;2081897;28;20156;-55
2022/04/29 06:01:34;;;;;;;19.50;13.40;;;;;;;;;;2081779;28;20796;-52
2022/04/29 06:02:38;;;;;;;20.13;14.43;;;;;;;;;;2080734;28;20261;-56
2022/04/29 06:03:43;;;;;;;21.77;14.77;;;;;;;;;;2080973;28;20184;-51
2022/04/29 06:04:44;;;;;;;23.10;14.43;;;;;;;;;;2080438;28;20716;-54
2022/04/29 06:05:45;;;;;;;23.97;14.53;;;;;;;;;;2072923;28;20172;-50
2022/04/29 06:06:46;;;;;;;20.33;13.57;;;;;;;;;;2073520;28;20668;-54
2022/04/29 06:07:47;;;;;;;17.75;13.07;;;;;;;;;;2081381;28;20283;-56
2022/04/29 06:08:55;;;;;;;21.00;12.90;;;;;;;;;;2081446;28;20610;-55
2022/04/29 06:09:55;;;;;;;19.10;12.97;;;;;;;;;;2073214;28;20218;-53
2022/04/29 06:10:56;;;;;;;20.40;13.97;;;;;;;;;;2073431;28;20169;-54
2022/04/29 06:11:56;;;;;;;18.07;13.10;;;;;;;;;;2072664;28;20185;-56
2022/04/29 06:13:02;;;;;;;21.07;13.97;;;;;;;;;;2078129;28;20268;-51
2022/04/29 06:14:05;;;;;;;23.63;13.07;;;;;;;;;;2077011;28;20207;-50
2022/04/29 06:15:44;;;;;;;17.30;12.30;;;;;;;;;;2056666;28;20189;-50
2022/04/29 06:17:07;;;;;;;18.67;14.10;;;;;;;;;;2056483;28;20236;-60
2022/04/29 06:18:26;;;;;;;25.03;13.63;;;;;;;;;;2057129;28;20158;-57
2022/04/29 06:19:57;;;;;;;21.43;13.57;;;;;;;;;;2048197;28;20226;-51
2022/04/29 06:21:30;;;;;;;35.77;14.17;;;;;;;;;;2051580;28;20570;-54
2022/04/29 06:22:56;;;;;;;27.88;12.95;;;;;;;;;;2077945;28;20291;-54
2022/04/29 06:24:02;;;;;;;22.15;13.93;;;;;;;;;;2081063;28;20164;-51